createdAt,value
2018-11-14T00:02:35.244Z,100.00
2018-11-14T00:05:39.780Z,100.00
2018-11-14T00:08:44.311Z,100.00
2018-11-14T00:11:49.090Z,100.00
2018-11-14T00:14:53.597Z,100.00
2018-11-14T00:17:58.291Z,100.00
2018-11-14T00:21:02.831Z,100.00
2018-11-14T00:24:07.563Z,100.00
2018-11-14T00:27:12.121Z,100.00
2018-11-14T00:30:20.286Z,100.00
2018-11-14T00:33:24.842Z,100.00
2018-11-14T00:36:29.338Z,100.00
2018-11-14T00:39:33.901Z,100.00
2018-11-14T00:42:38.516Z,100.00
2018-11-14T00:45:43.068Z,100.00
2018-11-14T00:48:47.628Z,100.00
2018-11-14T00:51:52.152Z,100.00
2018-11-14T00:54:56.738Z,100.00
2018-11-14T00:58:01.337Z,100.00
2018-11-14T01:01:06.250Z,100.00
2018-11-14T01:04:10.860Z,100.00
2018-11-14T01:07:15.359Z,100.00
2018-11-14T01:10:21.136Z,100.00
2018-11-14T01:13:25.714Z,100.00
2018-11-14T01:16:30.280Z,100.00
2018-11-14T01:19:34.852Z,100.00
2018-11-14T01:22:39.656Z,100.00
2018-11-14T01:25:44.216Z,100.00
2018-11-14T01:28:48.853Z,100.00
2018-11-14T01:31:53.637Z,100.00
2018-11-14T01:34:58.237Z,100.00
2018-11-14T01:38:02.789Z,100.00
2018-11-14T01:41:07.428Z,100.00
2018-11-14T01:44:11.953Z,100.00
2018-11-14T01:47:16.504Z,100.00
2018-11-14T01:50:21.080Z,100.00
2018-11-14T01:53:25.565Z,100.00
2018-11-14T01:56:30.100Z,100.00
2018-11-14T01:59:34.610Z,100.00
2018-11-14T02:02:39.164Z,100.00
2018-11-14T02:05:43.808Z,100.00
2018-11-14T02:08:48.315Z,100.00
2018-11-14T02:11:52.951Z,100.00
2018-11-14T02:14:57.657Z,100.00
2018-11-14T02:18:02.223Z,100.00
2018-11-14T02:21:06.787Z,100.00
2018-11-14T02:24:11.302Z,100.00
2018-11-14T02:27:15.880Z,100.00
2018-11-14T02:30:22.099Z,100.00
2018-11-14T02:33:26.547Z,100.00
2018-11-14T02:36:31.088Z,100.00
2018-11-14T02:39:35.681Z,100.00
2018-11-14T02:42:40.386Z,100.00
2018-11-14T02:45:44.889Z,100.00
2018-11-14T02:48:49.457Z,100.00
2018-11-14T02:51:54.029Z,100.00
2018-11-14T02:54:58.636Z,100.00
2018-11-14T02:58:03.199Z,100.00
2018-11-14T03:01:08.184Z,100.00
2018-11-14T03:04:12.713Z,100.00
2018-11-14T03:07:17.256Z,100.00
2018-11-14T03:10:22.407Z,100.00
2018-11-14T03:13:26.932Z,100.00
2018-11-14T03:16:31.540Z,100.00
2018-11-14T03:19:36.416Z,100.00
2018-11-14T03:22:40.956Z,100.00
2018-11-14T03:25:45.469Z,100.00
2018-11-14T03:28:49.898Z,100.00
2018-11-14T03:31:54.608Z,100.00
2018-11-14T03:34:59.178Z,100.00
2018-11-14T03:38:03.691Z,100.00
2018-11-14T03:41:08.292Z,100.00
2018-11-14T03:44:12.943Z,100.00
2018-11-14T03:47:17.494Z,100.00
2018-11-14T03:50:32.210Z,100.00
2018-11-14T03:53:36.766Z,100.00
2018-11-14T03:56:41.402Z,100.00
2018-11-14T03:59:46.018Z,100.00
2018-11-14T04:02:50.712Z,100.00
2018-11-14T04:05:55.276Z,100.00
2018-11-14T04:08:59.831Z,100.00
2018-11-14T04:12:04.405Z,100.00
2018-11-14T04:15:10.715Z,100.00
2018-11-14T04:18:15.248Z,100.00
2018-11-14T04:21:19.835Z,100.00
2018-11-14T04:24:24.374Z,100.00
2018-11-14T04:27:28.966Z,100.00
2018-11-14T04:30:33.656Z,100.00
2018-11-14T04:33:38.172Z,100.00
2018-11-14T04:36:42.779Z,100.00
2018-11-14T04:39:47.322Z,100.00
2018-11-14T04:42:52.001Z,100.00
2018-11-14T04:45:56.522Z,100.00
2018-11-14T04:49:01.125Z,100.00
2018-11-14T04:52:06.074Z,100.00
2018-11-14T04:55:12.701Z,100.00
2018-11-14T04:58:17.213Z,100.00
2018-11-14T05:01:21.807Z,100.00
2018-11-14T05:04:26.412Z,100.00
2018-11-14T05:07:31.026Z,100.00
2018-11-14T05:10:35.635Z,100.00
2018-11-14T05:13:40.148Z,100.00
2018-11-14T05:16:44.753Z,100.00
2018-11-14T05:19:49.385Z,100.00
2018-11-14T05:22:54.251Z,100.00
2018-11-14T05:25:58.892Z,100.00
2018-11-14T05:29:03.553Z,100.00
2018-11-14T05:32:08.176Z,100.00
2018-11-14T05:35:13.472Z,100.00
2018-11-14T05:38:17.992Z,100.00
2018-11-14T05:41:22.627Z,100.00
2018-11-14T05:44:27.237Z,100.00
2018-11-14T05:47:31.994Z,100.00
2018-11-14T05:50:36.487Z,100.00
2018-11-14T05:53:41.006Z,100.00
2018-11-14T05:56:45.513Z,100.00
2018-11-14T05:59:49.986Z,100.00
2018-11-14T06:02:54.603Z,100.00
2018-11-14T06:05:59.078Z,100.00
2018-11-14T06:09:04.417Z,100.00
2018-11-14T06:12:09.031Z,100.00
2018-11-14T06:15:18.395Z,100.00
2018-11-14T06:18:22.998Z,100.00
2018-11-14T06:21:27.613Z,100.00
2018-11-14T06:24:32.171Z,100.00
2018-11-14T06:27:36.754Z,100.00
2018-11-14T06:30:42.286Z,100.00
2018-11-14T06:33:46.867Z,100.00
2018-11-14T06:36:51.433Z,100.00
2018-11-14T06:39:56.035Z,100.00
2018-11-14T06:43:00.568Z,99.58
2018-11-14T06:46:05.215Z,100.00
2018-11-14T06:49:09.739Z,99.63
2018-11-14T06:52:14.314Z,100.00
2018-11-14T06:55:19.669Z,99.78
2018-11-14T06:58:24.286Z,99.81
2018-11-14T07:01:28.881Z,99.39
2018-11-14T07:04:33.445Z,99.43
2018-11-14T07:07:37.976Z,100.00
2018-11-14T07:10:42.568Z,100.00
2018-11-14T07:13:47.179Z,100.00
2018-11-14T07:16:51.860Z,100.00
2018-11-14T07:19:56.442Z,100.00
2018-11-14T07:23:01.028Z,100.00
2018-11-14T07:26:05.972Z,100.00
2018-11-14T07:29:10.596Z,100.00
2018-11-14T07:32:15.274Z,100.00
2018-11-14T07:35:20.180Z,100.00
2018-11-14T07:38:44.428Z,100.00
2018-11-14T07:41:48.958Z,100.00
2018-11-14T07:44:53.529Z,100.00
2018-11-14T07:47:58.082Z,100.00
2018-11-14T07:51:02.902Z,100.00
2018-11-14T07:54:07.651Z,100.00
2018-11-14T07:57:12.279Z,99.93
2018-11-14T08:00:17.758Z,99.75
2018-11-14T08:03:22.192Z,100.00
2018-11-14T08:06:26.806Z,99.33
2018-11-14T08:09:32.212Z,99.42
2018-11-14T08:12:36.817Z,99.20
2018-11-14T08:15:41.397Z,99.42
2018-11-14T08:18:46.021Z,98.48
2018-11-14T08:21:50.607Z,98.60
2018-11-14T08:24:55.300Z,98.75
2018-11-14T08:27:59.923Z,98.29
2018-11-14T08:31:04.527Z,98.11
2018-11-14T08:34:09.219Z,97.70
2018-11-14T08:37:13.732Z,97.10
2018-11-14T08:40:18.251Z,97.26
2018-11-14T08:43:22.875Z,98.03
2018-11-14T08:46:27.388Z,97.45
2018-11-14T08:49:31.942Z,97.64
2018-11-14T08:52:36.585Z,97.53
2018-11-14T08:55:41.126Z,97.79
2018-11-14T08:58:45.735Z,97.81
2018-11-14T09:01:50.247Z,97.80
2018-11-14T09:04:54.810Z,97.39
2018-11-14T09:07:59.443Z,96.46
2018-11-14T09:11:04.146Z,94.87
2018-11-14T09:14:08.639Z,94.37
2018-11-14T09:17:13.179Z,95.40
2018-11-14T09:20:19.369Z,96.13
2018-11-14T09:23:23.890Z,96.12
2018-11-14T09:26:35.028Z,95.71
2018-11-14T09:29:39.639Z,94.76
2018-11-14T09:32:44.292Z,93.99
2018-11-14T09:35:48.873Z,93.78
2018-11-14T09:38:53.367Z,94.50
2018-11-14T09:41:57.854Z,94.58
2018-11-14T09:45:02.541Z,94.57
2018-11-14T09:48:07.240Z,94.21
2018-11-14T09:51:11.738Z,95.91
2018-11-14T09:54:16.345Z,95.56
2018-11-14T09:57:20.823Z,95.33
2018-11-14T10:00:26.879Z,94.59
2018-11-14T10:03:31.528Z,93.65
2018-11-14T10:06:35.989Z,92.71
2018-11-14T10:09:40.738Z,93.27
2018-11-14T10:12:45.249Z,93.89
2018-11-14T10:15:49.879Z,93.75
2018-11-14T10:18:54.417Z,93.80
2018-11-14T10:21:58.993Z,93.42
2018-11-14T10:25:03.743Z,94.13
2018-11-14T10:28:08.311Z,94.65
2018-11-14T10:31:12.846Z,94.37
2018-11-14T10:34:17.412Z,94.75
2018-11-14T10:37:21.994Z,93.50
2018-11-14T10:40:27.878Z,93.39
2018-11-14T10:43:32.336Z,93.09
2018-11-14T10:46:36.832Z,93.53
2018-11-14T10:49:41.457Z,93.73
2018-11-14T10:52:45.973Z,92.93
2018-11-14T10:55:50.641Z,92.05
2018-11-14T10:58:55.253Z,92.80
2018-11-14T11:02:05.051Z,92.61
2018-11-14T11:05:14.600Z,91.67
2018-11-14T11:08:24.842Z,91.78
2018-11-14T11:11:29.866Z,92.15
2018-11-14T11:14:41.388Z,91.72
2018-11-14T11:17:51.199Z,91.28
2018-11-14T11:20:55.957Z,91.76
2018-11-14T11:24:00.472Z,92.05
2018-11-14T11:27:05.519Z,93.08
2018-11-14T11:30:11.367Z,91.92
2018-11-14T11:33:16.104Z,91.35
2018-11-14T11:36:20.646Z,91.47
2018-11-14T11:39:25.260Z,93.26
2018-11-14T11:42:29.829Z,93.01
2018-11-14T11:45:35.074Z,92.02
2018-11-14T11:48:40.667Z,93.27
2018-11-14T11:51:45.244Z,92.22
2018-11-14T11:54:49.743Z,93.13
2018-11-14T11:57:54.640Z,93.27
2018-11-14T12:00:59.170Z,92.05
2018-11-14T12:04:03.715Z,93.51
2018-11-14T12:07:08.380Z,93.87
2018-11-14T12:10:14.332Z,93.38
2018-11-14T12:13:18.903Z,94.05
2018-11-14T12:16:23.519Z,93.56
2018-11-14T12:19:28.209Z,93.08
2018-11-14T12:22:32.753Z,91.56
2018-11-14T12:25:37.317Z,92.17
2018-11-14T12:28:41.824Z,91.68
2018-11-14T12:31:46.361Z,91.09
2018-11-14T12:34:51.113Z,92.07
2018-11-14T12:37:55.663Z,92.24
2018-11-14T12:41:00.146Z,92.56
2018-11-14T12:44:04.853Z,92.41
2018-11-14T12:47:09.495Z,92.83
2018-11-14T12:50:14.654Z,91.79
2018-11-14T12:53:19.199Z,91.17
2018-11-14T12:56:23.909Z,92.48
2018-11-14T12:59:28.482Z,92.26
2018-11-14T13:02:33.052Z,92.31
2018-11-14T13:05:37.663Z,93.05
2018-11-14T13:08:42.222Z,93.32
2018-11-14T13:11:46.825Z,93.81
2018-11-14T13:14:51.464Z,94.23
2018-11-14T13:17:55.927Z,93.77
2018-11-14T13:21:00.615Z,93.42
2018-11-14T13:24:05.346Z,93.66
2018-11-14T13:27:09.937Z,93.85
2018-11-14T13:30:16.700Z,93.44
2018-11-14T13:33:21.322Z,93.82
2018-11-14T13:36:25.868Z,94.26
2018-11-14T13:39:30.415Z,94.34
2018-11-14T13:42:35.028Z,94.71
2018-11-14T13:45:39.622Z,94.27
2018-11-14T13:48:44.252Z,96.00
2018-11-14T13:51:48.987Z,94.70
2018-11-14T13:54:53.686Z,95.23
2018-11-14T13:57:58.244Z,94.99
2018-11-14T14:01:02.868Z,95.38
2018-11-14T14:04:07.400Z,95.18
2018-11-14T14:07:12.060Z,94.80
2018-11-14T14:10:17.505Z,95.13
2018-11-14T14:13:22.073Z,94.45
2018-11-14T14:16:27.511Z,93.99
2018-11-14T14:19:32.059Z,94.51
2018-11-14T14:22:36.732Z,93.62
2018-11-14T14:25:41.280Z,94.00
2018-11-14T14:28:45.882Z,94.63
2018-11-14T14:31:50.428Z,95.80
2018-11-14T14:34:55.245Z,96.35
2018-11-14T14:37:59.784Z,96.07
2018-11-14T14:41:04.479Z,96.27
2018-11-14T14:44:09.031Z,96.77
2018-11-14T14:47:13.707Z,95.79
2018-11-14T14:50:19.181Z,96.63
2018-11-14T14:53:23.798Z,96.53
2018-11-14T14:56:28.506Z,97.04
2018-11-14T14:59:33.094Z,96.53
2018-11-14T15:02:37.903Z,96.22
2018-11-14T15:05:42.526Z,94.97
2018-11-14T15:08:47.084Z,94.23
2018-11-14T15:11:51.678Z,94.51
2018-11-14T15:14:56.343Z,94.45
2018-11-14T15:18:00.952Z,94.35
2018-11-14T15:21:06.862Z,94.67
2018-11-14T15:24:11.451Z,94.54
2018-11-14T15:27:16.081Z,94.59
2018-11-14T15:30:24.086Z,94.44
2018-11-14T15:33:30.160Z,95.14
2018-11-14T15:36:34.734Z,95.33
2018-11-14T15:39:39.343Z,95.32
2018-11-14T15:42:44.134Z,94.01
2018-11-14T15:45:48.614Z,93.87
2018-11-14T15:48:53.280Z,94.33
2018-11-14T15:51:57.867Z,93.74
2018-11-14T15:55:02.538Z,94.66
2018-11-14T15:58:07.607Z,94.23
2018-11-14T16:01:12.302Z,93.71
2018-11-14T16:04:16.971Z,94.94
2018-11-14T16:07:24.454Z,95.21
2018-11-14T16:10:29.877Z,95.30
2018-11-14T16:13:34.443Z,94.64
2018-11-14T16:16:39.147Z,94.86
2018-11-14T16:19:43.867Z,95.02
2018-11-14T16:22:48.511Z,95.17
2018-11-14T16:25:53.091Z,94.37
2018-11-14T16:28:57.655Z,94.24
2018-11-14T16:32:02.296Z,94.37
2018-11-14T16:35:06.987Z,94.67
2018-11-14T16:38:11.905Z,94.85
2018-11-14T16:41:16.443Z,95.04
2018-11-14T16:44:21.085Z,95.34
2018-11-14T16:47:25.822Z,95.49
2018-11-14T16:50:31.076Z,95.75
2018-11-14T16:53:35.742Z,96.17
2018-11-14T16:56:40.304Z,95.80
2018-11-14T16:59:45.013Z,95.38
2018-11-14T17:02:49.650Z,94.78
2018-11-14T17:05:54.310Z,94.20
2018-11-14T17:08:58.925Z,95.09
2018-11-14T17:12:03.477Z,94.47
2018-11-14T17:15:10.832Z,93.85
2018-11-14T17:18:15.487Z,94.44
2018-11-14T17:21:20.204Z,94.75
2018-11-14T17:24:24.857Z,93.82
2018-11-14T17:27:29.552Z,92.94
2018-11-14T17:30:34.344Z,92.04
2018-11-14T17:33:38.919Z,91.38
2018-11-14T17:36:43.606Z,91.02
2018-11-14T17:39:48.228Z,90.77
2018-11-14T17:42:53.557Z,91.40
2018-11-14T17:45:58.086Z,91.54
2018-11-14T17:49:02.888Z,91.49
2018-11-14T17:52:07.514Z,91.66
2018-11-14T17:55:13.566Z,89.85
2018-11-14T17:58:18.056Z,90.38
2018-11-14T18:01:22.744Z,90.40
2018-11-14T18:04:27.295Z,90.71
2018-11-14T18:07:31.893Z,91.09
2018-11-14T18:10:37.272Z,91.60
2018-11-14T18:13:41.920Z,90.97
2018-11-14T18:16:46.563Z,91.00
2018-11-14T18:19:51.149Z,91.26
2018-11-14T18:22:56.166Z,90.61
2018-11-14T18:26:00.945Z,89.74
2018-11-14T18:29:05.537Z,90.11
2018-11-14T18:32:11.484Z,90.70
2018-11-14T18:35:17.164Z,90.44
2018-11-14T18:38:21.752Z,90.13
2018-11-14T18:41:26.392Z,90.61
2018-11-14T18:44:31.019Z,90.66
2018-11-14T18:47:35.698Z,91.07
2018-11-14T18:50:40.311Z,91.62
2018-11-14T18:53:44.810Z,91.39
2018-11-14T18:56:49.715Z,91.47
2018-11-14T18:59:54.270Z,91.51
2018-11-14T19:02:59.647Z,90.01
2018-11-14T19:06:04.386Z,91.28
2018-11-14T19:09:10.034Z,90.48
2018-11-14T19:12:14.790Z,89.92
2018-11-14T19:15:20.816Z,90.67
2018-11-14T19:18:25.363Z,90.63
2018-11-14T19:21:30.170Z,90.13
2018-11-14T19:24:34.818Z,90.04
2018-11-14T19:27:39.273Z,91.20
2018-11-14T19:30:44.066Z,90.92
2018-11-14T19:33:48.621Z,90.72
2018-11-14T19:36:53.260Z,91.29
2018-11-14T19:39:57.916Z,91.20
2018-11-14T19:43:03.867Z,90.21
2018-11-14T19:46:09.493Z,90.12
2018-11-14T19:49:14.201Z,89.98
2018-11-14T19:52:18.875Z,89.16
2018-11-14T19:55:24.753Z,89.56
2018-11-14T19:58:29.448Z,89.30
2018-11-14T20:01:34.027Z,89.24
2018-11-14T20:04:38.743Z,89.17
2018-11-14T20:07:43.941Z,89.71
2018-11-14T20:10:48.825Z,89.62
2018-11-14T20:13:53.517Z,89.29
2018-11-14T20:16:58.330Z,89.71
2018-11-14T20:20:03.058Z,89.96
2018-11-14T20:23:07.784Z,89.19
2018-11-14T20:26:12.588Z,89.66
2018-11-14T20:29:17.401Z,89.97
2018-11-14T20:32:22.246Z,89.93
2018-11-14T20:35:27.398Z,89.77
2018-11-14T20:38:32.091Z,89.46
2018-11-14T20:41:36.844Z,89.70
2018-11-14T20:44:41.508Z,90.27
2018-11-14T20:47:46.167Z,90.78
2018-11-14T20:50:50.847Z,90.10
2018-11-14T20:53:55.618Z,89.56
2018-11-14T20:57:00.350Z,89.62
2018-11-14T21:00:05.843Z,89.75
2018-11-14T21:03:10.933Z,90.19
2018-11-14T21:06:15.527Z,89.95
2018-11-14T21:09:20.233Z,89.97
2018-11-14T21:12:24.945Z,89.23
2018-11-14T21:15:31.203Z,89.48
2018-11-14T21:18:35.908Z,89.68
2018-11-14T21:21:40.613Z,90.20
2018-11-14T21:24:45.316Z,90.09
2018-11-14T21:27:50.543Z,89.84
2018-11-14T21:30:55.280Z,89.94
2018-11-14T21:33:59.780Z,90.17
2018-11-14T21:37:04.361Z,89.88
2018-11-14T21:40:10.354Z,90.23
2018-11-14T21:43:14.975Z,89.78
2018-11-14T21:46:19.670Z,90.59
2018-11-14T21:49:29.187Z,89.40
2018-11-14T21:52:33.778Z,89.30
2018-11-14T21:55:38.456Z,88.91
2018-11-14T21:58:43.696Z,89.48
2018-11-14T22:01:48.463Z,90.02
2018-11-14T22:04:53.082Z,89.27
2018-11-14T22:07:58.014Z,89.81
2018-11-14T22:11:02.704Z,88.21
2018-11-14T22:14:07.237Z,88.02
2018-11-14T22:17:11.981Z,88.54
2018-11-14T22:20:17.980Z,89.49
2018-11-14T22:23:22.728Z,89.25
2018-11-14T22:26:27.359Z,88.82
2018-11-14T22:29:31.898Z,88.54
2018-11-14T22:32:36.549Z,88.82
2018-11-14T22:35:41.079Z,88.88
2018-11-14T22:38:45.798Z,88.81
2018-11-14T22:41:50.467Z,88.71
2018-11-14T22:44:55.065Z,88.74
2018-11-14T22:47:59.806Z,89.23
2018-11-14T22:51:04.414Z,89.38
2018-11-14T22:54:09.044Z,88.96
2018-11-14T22:57:13.651Z,89.21
2018-11-14T23:00:28.621Z,89.20
2018-11-14T23:03:33.152Z,89.42
2018-11-14T23:06:37.663Z,88.98
2018-11-14T23:09:42.453Z,88.68
2018-11-14T23:12:47.315Z,88.67
2018-11-14T23:15:51.893Z,88.33
2018-11-14T23:18:56.467Z,87.89
2018-11-14T23:22:01.111Z,87.93
2018-11-14T23:25:05.930Z,87.99
2018-11-14T23:28:10.563Z,88.27
2018-11-14T23:31:15.152Z,88.82
2018-11-14T23:34:19.967Z,89.08
2018-11-14T23:37:24.577Z,88.02
2018-11-14T23:40:29.482Z,88.40
2018-11-14T23:43:34.253Z,86.78
2018-11-14T23:46:38.904Z,87.08
2018-11-14T23:49:43.505Z,87.43
2018-11-14T23:52:49.186Z,87.75
2018-11-14T23:55:53.669Z,88.26
2018-11-14T23:58:58.303Z,88.46
